createdAt,value
2018-04-22T00:00:42.563Z,29.80
2018-04-22T00:03:10.832Z,31.17
2018-04-22T00:05:39.089Z,32.43
2018-04-22T00:08:07.392Z,32.40
2018-04-22T00:10:35.642Z,36.90
2018-04-22T00:13:03.885Z,35.70
2018-04-22T00:15:32.163Z,35.70
2018-04-22T00:18:00.505Z,28.97
2018-04-22T00:20:28.785Z,29.10
2018-04-22T00:22:57.029Z,29.47
2018-04-22T00:25:26.169Z,28.90
2018-04-22T00:27:54.432Z,29.43
2018-04-22T00:30:22.701Z,29.20
2018-04-22T00:32:50.957Z,26.37
2018-04-22T00:35:19.217Z,28.37
2018-04-22T00:37:47.476Z,28.10
2018-04-22T00:40:15.742Z,27.30
2018-04-22T00:42:44.065Z,29.77
2018-04-22T00:45:12.322Z,27.73
2018-04-22T00:47:40.577Z,27.90
2018-04-22T00:50:08.851Z,28.20
2018-04-22T00:52:37.100Z,29.73
2018-04-22T00:55:06.138Z,28.57
2018-04-22T00:57:34.394Z,30.03
2018-04-22T01:00:02.671Z,29.87
2018-04-22T01:02:31.692Z,28.23
2018-04-22T01:04:59.995Z,29.50
2018-04-22T01:07:28.245Z,28.90
2018-04-22T01:09:56.510Z,27.87
2018-04-22T01:12:24.780Z,27.83
2018-04-22T01:14:53.821Z,29.90
2018-04-22T01:17:22.077Z,30.00
2018-04-22T01:19:50.348Z,28.57
2018-04-22T01:22:18.665Z,27.67
2018-04-22T01:24:46.931Z,27.87
2018-04-22T01:27:15.195Z,27.80
2018-04-22T01:29:43.476Z,27.87
2018-04-22T01:32:11.732Z,26.83
2018-04-22T01:34:40.773Z,26.70
2018-04-22T01:37:09.069Z,27.33
2018-04-22T01:39:37.342Z,26.33
2018-04-22T01:42:05.601Z,27.10
2018-04-22T01:44:33.897Z,26.20
2018-04-22T01:47:02.176Z,26.40
2018-04-22T01:49:30.461Z,27.00
2018-04-22T01:51:58.770Z,25.80
2018-04-22T01:54:27.018Z,25.40
2018-04-22T01:56:55.267Z,26.83
2018-04-22T01:59:23.580Z,24.50
2018-04-22T02:01:51.875Z,26.37
2018-04-22T02:04:20.232Z,24.60
2018-04-22T02:06:48.519Z,26.60
2018-04-22T02:09:16.792Z,24.17
2018-04-22T02:11:45.175Z,25.17
2018-04-22T02:14:13.460Z,27.30
2018-04-22T02:16:41.730Z,26.97
2018-04-22T02:19:10.021Z,27.77
2018-04-22T02:21:38.285Z,27.83
2018-04-22T02:24:06.548Z,28.07
2018-04-22T02:26:35.956Z,28.33
2018-04-22T02:29:04.236Z,30.70
2018-04-22T02:31:32.495Z,29.53
2018-04-22T02:34:01.533Z,31.20
2018-04-22T02:36:29.815Z,32.27
2018-04-22T02:38:58.293Z,34.07
2018-04-22T02:44:24.131Z,32.07
2018-04-22T02:46:52.429Z,37.73
2018-04-22T02:49:20.810Z,36.13
2018-04-22T02:51:49.056Z,35.50
2018-04-22T02:54:17.330Z,34.67
2018-04-22T02:56:46.532Z,38.30
2018-04-22T02:59:15.680Z,36.67
2018-04-22T03:01:44.181Z,36.67
2018-04-22T03:04:12.444Z,38.50
2018-04-22T03:06:40.705Z,40.53
2018-04-22T03:09:08.997Z,39.77
2018-04-22T03:11:37.257Z,39.87
2018-04-22T03:14:05.552Z,40.50
2018-04-22T03:16:33.819Z,45.37
2018-04-22T03:19:02.094Z,41.80
2018-04-22T03:21:30.341Z,46.70
2018-04-22T03:23:59.388Z,43.87
2018-04-22T03:26:27.655Z,43.80
2018-04-22T03:28:55.916Z,42.83
2018-04-22T03:31:25.049Z,41.67
2018-04-22T03:33:53.304Z,39.03
2018-04-22T03:36:21.605Z,38.53
2018-04-22T03:38:49.873Z,38.57
2018-04-22T03:41:18.144Z,35.37
2018-04-22T03:43:46.448Z,37.37
2018-04-22T03:46:14.720Z,38.27
2018-04-22T03:48:43.006Z,41.23
2018-04-22T03:51:11.272Z,39.23
2018-04-22T03:53:40.491Z,40.30
2018-04-22T03:56:08.754Z,35.60
2018-04-22T03:58:37.017Z,40.90
2018-04-22T04:01:05.293Z,38.30
2018-04-22T04:03:33.548Z,33.57
2018-04-22T04:06:02.596Z,38.37
2018-04-22T04:08:30.875Z,39.40
2018-04-22T04:10:59.140Z,41.57
2018-04-22T04:13:27.432Z,37.20
2018-04-22T04:15:55.744Z,35.17
2018-04-22T04:21:43.544Z,34.77
2018-04-22T04:24:33.360Z,34.30
2018-04-22T04:30:04.833Z,35.90
2018-04-22T04:32:33.088Z,37.10
2018-04-22T04:35:02.116Z,39.57
2018-04-22T04:37:30.404Z,40.97
2018-04-22T04:39:58.694Z,37.07
2018-04-22T04:42:26.969Z,37.90
2018-04-22T04:44:55.238Z,35.80
2018-04-22T04:47:23.488Z,37.23
2018-04-22T04:49:51.797Z,35.10
2018-04-22T04:52:20.049Z,37.20
2018-04-22T04:54:48.362Z,36.70
2018-04-22T04:57:16.609Z,37.70
2018-04-22T04:59:44.988Z,37.90
2018-04-22T05:02:13.298Z,40.60
2018-04-22T05:04:41.544Z,34.30
2018-04-22T05:07:09.860Z,32.30
2018-04-22T05:09:38.133Z,29.70
2018-04-22T05:12:06.418Z,29.97
2018-04-22T05:14:34.697Z,31.40
2018-04-22T05:17:02.973Z,26.33
2018-04-22T05:19:31.297Z,27.30
2018-04-22T05:21:59.580Z,24.43
2018-04-22T05:24:29.107Z,24.30
2018-04-22T05:26:58.147Z,29.10
2018-04-22T05:29:26.411Z,27.60
2018-04-22T05:31:55.438Z,28.23
2018-04-22T05:34:23.693Z,26.40
2018-04-22T05:36:52.025Z,26.30
2018-04-22T05:39:20.271Z,25.40
2018-04-22T05:41:48.661Z,28.27
2018-04-22T05:44:16.906Z,26.27
2018-04-22T05:46:45.680Z,25.97
2018-04-22T05:49:14.033Z,24.77
2018-04-22T05:51:42.382Z,23.63
2018-04-22T05:54:10.662Z,23.43
2018-04-22T05:56:38.920Z,25.87
2018-04-22T05:59:07.228Z,25.97
2018-04-22T06:01:35.600Z,26.20
2018-04-22T06:04:03.852Z,26.47
2018-04-22T06:06:32.132Z,29.50
2018-04-22T06:09:00.376Z,27.63
2018-04-22T06:11:28.731Z,28.47
2018-04-22T06:13:56.980Z,30.03
2018-04-22T06:16:25.259Z,28.77
2018-04-22T06:18:53.562Z,29.70
2018-04-22T06:21:21.828Z,30.47
2018-04-22T06:23:50.113Z,31.50
2018-04-22T06:26:18.390Z,35.97
2018-04-22T06:28:46.715Z,36.40
2018-04-22T06:31:15.155Z,36.47
2018-04-22T06:33:43.405Z,34.17
2018-04-22T06:36:12.432Z,33.67
2018-04-22T06:38:40.681Z,35.93
2018-04-22T06:41:08.994Z,32.50
2018-04-22T06:43:37.252Z,39.17
2018-04-22T06:46:05.591Z,37.93
2018-04-22T06:48:33.834Z,38.10
2018-04-22T06:51:02.109Z,35.97
2018-04-22T06:53:30.388Z,33.33
2018-04-22T06:55:59.417Z,35.20
2018-04-22T06:58:28.013Z,35.07
2018-04-22T07:00:57.629Z,30.80
2018-04-22T07:03:26.936Z,27.30
2018-04-22T07:05:55.266Z,29.60
2018-04-22T07:08:23.564Z,29.83
2018-04-22T07:10:51.829Z,29.80
2018-04-22T07:13:20.120Z,28.10
2018-04-22T07:15:48.385Z,29.07
2018-04-22T07:18:16.644Z,28.17
2018-04-22T07:20:44.944Z,28.70
2018-04-22T07:23:13.193Z,28.20
2018-04-22T07:25:42.345Z,31.07
2018-04-22T07:28:10.622Z,30.37
2018-04-22T07:30:38.947Z,30.90
2018-04-22T07:33:07.978Z,28.87
2018-04-22T07:35:36.241Z,30.40
2018-04-22T07:38:04.490Z,30.80
2018-04-22T07:40:32.757Z,29.80
2018-04-22T07:43:01.005Z,28.10
2018-04-22T07:45:29.293Z,29.27
2018-04-22T07:47:57.582Z,28.27
2018-04-22T07:50:25.869Z,27.97
2018-04-22T07:52:54.243Z,30.30
2018-04-22T07:55:22.499Z,30.37
2018-04-22T07:57:50.770Z,29.20
2018-04-22T08:00:19.793Z,29.03
2018-04-22T08:02:48.072Z,30.17
2018-04-22T08:05:16.357Z,31.57
2018-04-22T08:07:44.620Z,29.37
2018-04-22T08:10:12.871Z,27.67
2018-04-22T08:12:41.900Z,30.10
2018-04-22T08:15:10.155Z,29.80
2018-04-22T08:17:39.186Z,28.80
2018-04-22T08:20:07.446Z,30.23
2018-04-22T08:22:35.716Z,29.57
2018-04-22T08:25:03.966Z,29.77
2018-04-22T08:27:32.232Z,27.83
2018-04-22T08:30:00.499Z,31.03
2018-04-22T08:32:28.765Z,28.00
2018-04-22T08:34:57.033Z,31.40
2018-04-22T08:37:25.304Z,28.70
2018-04-22T08:39:53.617Z,31.97
2018-04-22T08:42:21.900Z,29.23
2018-04-22T08:44:50.159Z,28.70
2018-04-22T08:47:18.457Z,28.30
2018-04-22T08:49:46.829Z,28.20
2018-04-22T08:52:15.138Z,27.73
2018-04-22T08:54:43.492Z,27.57
2018-04-22T08:57:11.740Z,29.10
2018-04-22T08:59:40.066Z,27.53
2018-04-22T09:02:08.398Z,26.63
2018-04-22T09:04:36.597Z,28.50
2018-04-22T09:07:04.860Z,26.60
2018-04-22T09:09:33.157Z,26.77
2018-04-22T09:12:01.421Z,26.60
2018-04-22T09:14:29.916Z,27.23
2018-04-22T09:16:58.195Z,25.33
2018-04-22T09:19:26.436Z,25.17
2018-04-22T09:21:55.863Z,24.97
2018-04-22T09:24:25.432Z,21.73
2018-04-22T09:26:54.122Z,25.27
2018-04-22T09:29:23.207Z,23.30
2018-04-22T09:31:51.467Z,24.10
2018-04-22T09:34:19.712Z,26.27
2018-04-22T09:36:47.971Z,23.80
2018-04-22T09:39:16.988Z,25.50
2018-04-22T09:41:45.269Z,23.50
2018-04-22T09:44:13.521Z,24.57
2018-04-22T09:46:42.592Z,25.40
2018-04-22T09:49:10.852Z,24.47
2018-04-22T09:51:39.120Z,25.83
2018-04-22T09:54:07.409Z,22.63
2018-04-22T09:56:35.775Z,23.70
2018-04-22T09:59:04.076Z,25.30
2018-04-22T10:01:37.140Z,25.13
2018-04-22T10:04:10.370Z,25.67
2018-04-22T10:06:38.629Z,24.00
2018-04-22T10:09:06.894Z,22.63
2018-04-22T10:11:35.209Z,22.77
2018-04-22T10:14:03.465Z,27.17
2018-04-22T10:16:31.778Z,21.77
2018-04-22T10:19:00.046Z,23.20
2018-04-22T10:21:28.563Z,21.27
2018-04-22T10:23:57.092Z,21.03
2018-04-22T10:26:25.734Z,21.40
2018-04-22T10:28:54.121Z,20.17
2018-04-22T10:31:22.539Z,19.63
2018-04-22T10:33:51.091Z,20.57
2018-04-22T10:36:19.647Z,21.97
2018-04-22T10:38:49.698Z,21.17
2018-04-22T10:41:18.289Z,20.07
2018-04-22T10:43:46.764Z,22.67
2018-04-22T10:46:16.896Z,19.83
2018-04-22T10:48:46.198Z,19.83
2018-04-22T10:51:14.784Z,17.37
2018-04-22T10:53:43.206Z,20.30
2018-04-22T10:56:11.607Z,20.57
2018-04-22T10:58:40.244Z,20.77
2018-04-22T11:01:08.591Z,22.17
2018-04-22T11:03:37.258Z,22.20
2018-04-22T11:06:05.819Z,22.13
2018-04-22T11:08:34.372Z,20.90
2018-04-22T11:11:03.418Z,20.57
2018-04-22T11:13:31.681Z,17.87
2018-04-22T11:16:00.701Z,20.20
2018-04-22T11:18:28.965Z,18.00
2018-04-22T11:20:58.025Z,16.93
2018-04-22T11:23:26.293Z,17.20
2018-04-22T11:25:54.676Z,15.63
2018-04-22T11:28:22.963Z,17.37
2018-04-22T11:30:51.221Z,16.57
2018-04-22T11:33:19.515Z,15.17
2018-04-22T11:35:47.745Z,18.53
2018-04-22T11:38:16.020Z,19.43
2018-04-22T11:40:45.028Z,14.63
2018-04-22T11:43:13.297Z,17.50
2018-04-22T11:45:42.317Z,13.60
2018-04-22T11:48:10.589Z,17.53
2018-04-22T11:50:38.859Z,17.20
2018-04-22T11:53:07.187Z,17.43
2018-04-22T11:55:35.443Z,15.47
2018-04-22T11:58:03.720Z,17.93
2018-04-22T12:00:31.969Z,16.57
2018-04-22T12:03:00.268Z,17.47
2018-04-22T12:05:28.529Z,18.87
2018-04-22T12:07:56.852Z,17.90
2018-04-22T12:10:25.099Z,15.30
2018-04-22T12:12:54.128Z,19.83
2018-04-22T12:15:22.939Z,19.13
2018-04-22T12:17:51.257Z,20.97
2018-04-22T12:20:20.282Z,18.47
2018-04-22T12:22:48.687Z,21.20
2018-04-22T12:25:17.020Z,17.17
2018-04-22T12:27:45.286Z,16.80
2018-04-22T12:30:13.636Z,18.67
2018-04-22T12:32:41.900Z,18.17
2018-04-22T12:35:10.165Z,17.40
2018-04-22T12:37:38.474Z,17.70
2018-04-22T12:40:06.850Z,17.17
2018-04-22T12:42:35.121Z,32.13
2018-04-22T12:45:03.367Z,41.07
2018-04-22T12:47:32.412Z,33.40
2018-04-22T12:50:00.669Z,38.00
2018-04-22T12:52:28.951Z,17.87
2018-04-22T12:54:57.209Z,14.87
2018-04-22T12:57:26.248Z,19.50
2018-04-22T12:59:54.508Z,18.20
2018-04-22T13:02:22.790Z,14.73
2018-04-22T13:04:51.073Z,21.60
2018-04-22T13:07:19.462Z,13.30
2018-04-22T13:09:47.730Z,11.63
2018-04-22T13:12:16.009Z,13.60
2018-04-22T13:14:44.256Z,10.03
2018-04-22T13:17:12.588Z,14.13
2018-04-22T13:19:40.884Z,10.87
2018-04-22T13:22:09.100Z,14.80
2018-04-22T13:24:38.132Z,11.67
2018-04-22T13:27:06.411Z,12.80
2018-04-22T13:29:34.660Z,9.97
2018-04-22T13:32:03.689Z,9.63
2018-04-22T13:34:32.023Z,12.43
2018-04-22T13:37:00.262Z,9.30
2018-04-22T13:39:28.509Z,8.90
2018-04-22T13:41:56.780Z,9.20
2018-04-22T13:44:25.057Z,8.20
2018-04-22T13:46:53.336Z,9.87
2018-04-22T13:49:22.349Z,9.10
2018-04-22T13:51:51.378Z,10.30
2018-04-22T13:54:19.638Z,9.93
2018-04-22T13:56:47.880Z,17.60
2018-04-22T13:59:17.013Z,11.77
2018-04-22T14:01:45.260Z,13.37
2018-04-22T14:04:13.549Z,11.60
2018-04-22T14:06:42.003Z,10.40
2018-04-22T14:09:10.337Z,13.03
2018-04-22T14:11:38.574Z,7.63
2018-04-22T14:14:07.654Z,8.30
2018-04-22T14:16:35.868Z,9.10
2018-04-22T14:19:04.122Z,8.63
2018-04-22T14:21:32.460Z,8.37
2018-04-22T14:24:00.763Z,16.70
2018-04-22T14:26:29.025Z,15.60
2018-04-22T14:28:57.306Z,8.00
2018-04-22T14:31:25.571Z,7.80
2018-04-22T14:33:53.856Z,8.97
2018-04-22T14:36:22.100Z,8.70
2018-04-22T14:38:51.148Z,13.40
2018-04-22T14:41:19.503Z,9.93
2018-04-22T14:43:59.954Z,8.23
2018-04-22T14:46:28.996Z,9.73
2018-04-22T14:49:04.972Z,10.07
2018-04-22T14:51:34.624Z,7.93
2018-04-22T14:54:03.003Z,12.70
2018-04-22T14:56:31.284Z,10.50
2018-04-22T14:58:59.595Z,9.80
2018-04-22T15:01:27.834Z,8.00
2018-04-22T15:03:56.865Z,10.13
2018-04-22T15:06:25.151Z,8.43
2018-04-22T15:08:54.171Z,11.47
2018-04-22T15:11:22.516Z,10.87
2018-04-22T15:13:50.777Z,8.73
2018-04-22T15:16:19.789Z,8.23
2018-04-22T15:18:48.041Z,11.23
2018-04-22T15:21:17.170Z,7.90
2018-04-22T15:23:45.424Z,7.80
2018-04-22T15:26:14.460Z,8.60
2018-04-22T15:28:42.716Z,9.17
2018-04-22T15:31:11.026Z,9.43
2018-04-22T15:33:39.273Z,10.87
2018-04-22T15:36:07.526Z,9.40
2018-04-22T15:38:36.541Z,9.07
2018-04-22T15:41:04.789Z,9.47
2018-04-22T15:43:33.042Z,11.90
2018-04-22T15:46:01.305Z,12.53
2018-04-22T15:48:29.557Z,8.63
2018-04-22T15:50:57.870Z,12.33
2018-04-22T15:53:26.137Z,8.40
2018-04-22T15:55:54.430Z,9.97
2018-04-22T15:58:22.715Z,8.27
2018-04-22T16:00:50.958Z,8.93
2018-04-22T16:03:19.989Z,12.13
2018-04-22T16:05:48.237Z,8.90
2018-04-22T16:08:16.497Z,8.30
2018-04-22T16:10:45.536Z,9.17
2018-04-22T16:13:13.806Z,8.90
2018-04-22T16:15:42.042Z,11.13
2018-04-22T16:18:11.824Z,12.30
2018-04-22T16:20:40.065Z,9.60
2018-04-22T16:23:08.463Z,7.63
2018-04-22T16:25:36.750Z,9.27
2018-04-22T16:28:05.008Z,8.43
2018-04-22T16:30:33.260Z,11.97
2018-04-22T16:33:01.593Z,9.00
2018-04-22T16:35:29.851Z,11.73
2018-04-22T16:37:58.865Z,8.80
2018-04-22T16:40:27.112Z,7.70
2018-04-22T16:42:56.148Z,9.27
2018-04-22T16:45:24.391Z,8.07
2018-04-22T16:47:53.413Z,7.30
2018-04-22T16:50:21.655Z,8.13
2018-04-22T16:52:49.907Z,8.90
2018-04-22T16:55:19.946Z,5.73
2018-04-22T16:57:48.938Z,7.40
2018-04-22T17:02:59.198Z,10.03
2018-04-22T17:05:27.687Z,8.90
2018-04-22T17:07:55.941Z,9.87
2018-04-22T17:10:24.309Z,6.03
2018-04-22T17:12:59.272Z,9.30
2018-04-22T17:15:28.130Z,7.40
2018-04-22T17:17:57.178Z,9.63
2018-04-22T17:20:25.416Z,6.83
2018-04-22T17:22:53.705Z,7.63
2018-04-22T17:25:21.943Z,6.97
2018-04-22T17:27:50.212Z,9.03
2018-04-22T17:30:18.464Z,6.60
2018-04-22T17:32:46.708Z,6.87
2018-04-22T17:35:15.784Z,9.20
2018-04-22T17:37:44.033Z,7.17
2018-04-22T17:40:12.300Z,6.97
2018-04-22T17:42:40.570Z,7.20
2018-04-22T17:45:08.837Z,6.20
2018-04-22T17:47:37.129Z,9.83
2018-04-22T17:50:05.403Z,10.17
2018-04-22T17:52:33.701Z,9.23
2018-04-22T17:55:01.954Z,9.23
2018-04-22T17:57:30.290Z,7.07
2018-04-22T17:59:58.533Z,8.48
2018-04-22T18:02:26.849Z,9.60
2018-04-22T18:04:55.083Z,6.67
2018-04-22T18:07:23.365Z,8.37
2018-04-22T18:09:51.628Z,9.40
2018-04-22T18:12:19.884Z,6.30
2018-04-22T18:14:48.134Z,7.07
2018-04-22T18:17:16.368Z,7.30
2018-04-22T18:19:44.637Z,6.70
2018-04-22T18:22:12.878Z,7.50
2018-04-22T18:24:41.227Z,7.60
2018-04-22T18:27:09.468Z,10.70
2018-04-22T18:29:37.728Z,8.97
2018-04-22T18:32:05.982Z,8.17
2018-04-22T18:34:34.252Z,8.70
2018-04-22T18:37:02.489Z,8.77
2018-04-22T18:39:31.509Z,6.60
2018-04-22T18:41:59.802Z,12.73
2018-04-22T18:44:28.060Z,6.47
2018-04-22T18:46:56.369Z,8.50
2018-04-22T18:49:24.619Z,8.07
2018-04-22T18:51:52.865Z,5.37
2018-04-22T18:54:21.124Z,6.00
2018-04-22T18:56:49.381Z,6.27
2018-04-22T18:59:17.640Z,5.93
2018-04-22T19:01:45.889Z,5.60
2018-04-22T19:04:14.958Z,7.63
2018-04-22T19:06:43.192Z,10.47
2018-04-22T19:09:11.455Z,9.30
2018-04-22T19:11:40.461Z,5.53
2018-04-22T19:14:08.761Z,6.17
2018-04-22T19:16:37.026Z,12.20
2018-04-22T19:19:05.309Z,9.33
2018-04-22T19:21:33.562Z,7.07
2018-04-22T19:24:02.619Z,8.60
2018-04-22T19:26:30.863Z,6.03
2018-04-22T19:28:59.112Z,8.40
2018-04-22T19:31:28.137Z,5.10
2018-04-22T19:33:56.452Z,6.37
2018-04-22T19:36:24.714Z,7.40
2018-04-22T19:38:53.000Z,5.93
2018-04-22T19:41:21.272Z,7.83
2018-04-22T19:43:49.532Z,7.00
2018-04-22T19:46:17.836Z,5.63
2018-04-22T19:48:46.160Z,10.03
2018-04-22T19:51:14.625Z,8.70
2018-04-22T19:53:43.987Z,11.97
2018-04-22T19:56:12.364Z,9.13
2018-04-22T19:58:40.668Z,9.40
2018-04-22T20:01:08.955Z,9.50
2018-04-22T20:03:37.211Z,10.20
2018-04-22T20:06:05.468Z,7.10
2018-04-22T20:08:34.492Z,10.80
2018-04-22T20:11:02.739Z,9.47
2018-04-22T20:13:31.765Z,11.33
2018-04-22T20:16:00.011Z,6.70
2018-04-22T20:18:28.265Z,8.33
2018-04-22T20:20:56.661Z,7.57
2018-04-22T20:23:24.874Z,7.67
2018-04-22T20:25:53.955Z,7.97
2018-04-22T20:28:22.203Z,11.33
2018-04-22T20:30:50.654Z,7.20
2018-04-22T20:33:19.088Z,9.73
2018-04-22T20:35:47.400Z,14.50
2018-04-22T20:38:16.560Z,12.57
2018-04-22T20:40:44.789Z,7.47
2018-04-22T20:43:13.092Z,13.13
2018-04-22T20:45:41.355Z,12.10
2018-04-22T20:48:10.000Z,12.40
2018-04-22T20:50:38.591Z,11.10
2018-04-22T20:53:06.921Z,9.20
2018-04-22T20:55:35.658Z,8.40
2018-04-22T20:58:05.190Z,9.93
2018-04-22T21:00:34.320Z,12.30
2018-04-22T21:03:02.609Z,6.53
2018-04-22T21:05:30.871Z,9.93
2018-04-22T21:07:59.170Z,13.93
2018-04-22T21:10:27.429Z,11.47
2018-04-22T21:12:55.733Z,11.93
2018-04-22T21:15:24.011Z,14.50
2018-04-22T21:17:52.291Z,17.43
2018-04-22T21:20:20.567Z,12.13
2018-04-22T21:22:48.803Z,9.30
2018-04-22T21:25:17.867Z,8.90
2018-04-22T21:27:46.151Z,7.50
2018-04-22T21:30:14.404Z,9.93
2018-04-22T21:32:42.685Z,13.23
2018-04-22T21:35:10.940Z,6.90
2018-04-22T21:37:39.190Z,8.50
2018-04-22T21:40:07.519Z,12.30
2018-04-22T21:42:35.760Z,6.70
2018-04-22T21:45:04.786Z,9.57
2018-04-22T21:47:33.081Z,10.70
2018-04-22T21:50:01.449Z,10.40
2018-04-22T21:52:30.082Z,20.40
2018-04-22T21:54:58.429Z,16.10
2018-04-22T21:57:26.742Z,10.83
2018-04-22T21:59:55.042Z,17.57
2018-04-22T22:02:24.120Z,12.23
2018-04-22T22:04:52.408Z,18.37
2018-04-22T22:07:20.648Z,17.43
2018-04-22T22:09:48.931Z,18.00
2018-04-22T22:12:17.237Z,13.80
2018-04-22T22:14:45.526Z,13.13
2018-04-22T22:17:13.769Z,13.03
2018-04-22T22:19:42.665Z,11.53
2018-04-22T22:22:10.966Z,11.97
2018-04-22T22:24:40.760Z,10.57
2018-04-22T22:27:09.159Z,9.00
2018-04-22T22:29:37.439Z,11.00
2018-04-22T22:32:05.666Z,11.03
2018-04-22T22:34:34.783Z,9.00
2018-04-22T22:37:03.043Z,14.13
2018-04-22T22:39:32.105Z,11.37
2018-04-22T22:42:00.356Z,7.77
2018-04-22T22:44:28.640Z,16.10
2018-04-22T22:46:56.885Z,13.77
2018-04-22T22:49:25.928Z,15.47
2018-04-22T22:51:54.178Z,14.67
2018-04-22T22:54:22.468Z,13.97
2018-04-22T22:56:51.148Z,12.10
2018-04-22T22:59:19.452Z,8.87
2018-04-22T23:01:47.729Z,11.97
2018-04-22T23:04:16.009Z,12.60
2018-04-22T23:06:44.254Z,12.50
2018-04-22T23:09:13.324Z,9.27
2018-04-22T23:11:41.607Z,7.03
2018-04-22T23:14:09.958Z,11.53
2018-04-22T23:16:38.228Z,9.20
2018-04-22T23:19:06.468Z,8.80
2018-04-22T23:21:35.503Z,13.70
2018-04-22T23:24:03.791Z,10.47
2018-04-22T23:26:32.052Z,10.37
2018-04-22T23:29:00.305Z,12.13
2018-04-22T23:31:29.381Z,10.97
2018-04-22T23:33:57.703Z,9.03
2018-04-22T23:36:25.982Z,10.30
2018-04-22T23:38:54.296Z,8.53
2018-04-22T23:41:22.568Z,11.30
2018-04-22T23:43:50.816Z,11.40
2018-04-22T23:46:19.116Z,10.60
2018-04-22T23:48:47.385Z,9.77
2018-04-22T23:51:15.657Z,8.53
2018-04-22T23:53:43.901Z,9.77
2018-04-22T23:56:12.160Z,10.43
2018-04-22T23:58:40.424Z,11.83
